createdAt,value
2022-08-14T00:00:24.897Z,21.38
2022-08-14T00:01:10.246Z,21.38
2022-08-14T00:01:55.250Z,21.44
2022-08-14T00:02:46.101Z,21.44
2022-08-14T00:03:31.232Z,21.44
2022-08-14T00:04:34.770Z,21.44
2022-08-14T00:05:03.248Z,21.50
2022-08-14T00:05:37.244Z,21.50
2022-08-14T00:06:28.764Z,21.50
2022-08-14T00:07:01.945Z,21.56
2022-08-14T00:07:41.797Z,21.56
2022-08-14T00:08:45.233Z,21.56
2022-08-14T00:09:19.273Z,21.56
2022-08-14T00:10:51.862Z,21.56
2022-08-14T00:11:01.547Z,21.56
2022-08-14T00:11:51.049Z,21.56
2022-08-14T00:12:56.941Z,21.56
2022-08-14T00:13:30.983Z,21.56
2022-08-14T00:14:05.043Z,21.56
2022-08-14T00:14:38.982Z,21.56
2022-08-14T00:15:18.014Z,21.56
2022-08-14T00:15:53.007Z,21.56
2022-08-14T00:16:41.055Z,21.50
2022-08-14T00:17:20.116Z,21.50
2022-08-14T00:17:55.877Z,21.50
2022-08-14T00:18:30.978Z,21.50
2022-08-14T00:21:10.971Z,21.50
2022-08-14T00:21:47.764Z,21.56
2022-08-14T00:22:44.133Z,21.56
2022-08-14T00:23:20.271Z,21.56
2022-08-14T00:24:02.298Z,21.56
2022-08-14T00:24:59.838Z,21.56
2022-08-14T00:25:53.794Z,21.50
2022-08-14T00:26:34.381Z,21.50
2022-08-14T00:27:06.872Z,21.50
2022-08-14T00:27:40.672Z,21.50
2022-08-14T00:28:19.230Z,21.50
2022-08-14T00:29:58.299Z,21.44
2022-08-14T00:30:37.121Z,21.44
2022-08-14T00:32:52.652Z,21.38
2022-08-14T00:33:16.154Z,21.31
2022-08-14T00:33:52.496Z,21.25
2022-08-14T00:34:47.145Z,21.25
2022-08-14T00:35:21.235Z,21.19
2022-08-14T00:36:37.097Z,21.19
2022-08-14T00:37:11.715Z,21.13
2022-08-14T00:38:13.024Z,21.13
2022-08-14T00:38:52.913Z,21.13
2022-08-14T00:39:25.719Z,21.13
2022-08-14T00:39:59.993Z,21.13
2022-08-14T00:40:46.232Z,21.13
2022-08-14T00:41:18.995Z,21.06
2022-08-14T00:41:54.070Z,21.06
2022-08-14T00:42:55.330Z,21.06
2022-08-14T00:43:32.336Z,21.00
2022-08-14T00:44:09.204Z,21.00
2022-08-14T00:44:44.045Z,21.00
2022-08-14T00:45:51.526Z,20.94
2022-08-14T00:46:32.871Z,20.94
2022-08-14T00:47:53.366Z,20.94
2022-08-14T00:48:45.098Z,20.88
2022-08-14T00:49:21.818Z,20.88
2022-08-14T00:50:00.760Z,20.88
2022-08-14T00:50:37.253Z,20.81
2022-08-14T00:51:10.800Z,20.81
2022-08-14T00:51:45.567Z,20.88
2022-08-14T00:52:24.031Z,20.88
2022-08-14T00:53:00.571Z,20.88
2022-08-14T00:53:36.197Z,20.88
2022-08-14T00:54:17.056Z,20.88
2022-08-14T00:54:58.228Z,20.88
2022-08-14T00:55:31.495Z,20.88
2022-08-14T00:56:10.476Z,20.88
2022-08-14T00:56:49.105Z,20.88
2022-08-14T00:57:22.310Z,20.88
2022-08-14T00:58:10.138Z,20.88
2022-08-14T00:58:45.260Z,20.88
2022-08-14T00:59:22.924Z,20.88
2022-08-14T00:59:57.388Z,20.88
2022-08-14T01:00:43.177Z,20.88
2022-08-14T01:01:24.136Z,20.94
2022-08-14T01:02:01.686Z,20.94
2022-08-14T01:02:35.414Z,20.94
2022-08-14T01:03:10.194Z,21.00
2022-08-14T01:03:42.824Z,20.94
2022-08-14T01:04:37.662Z,20.94
2022-08-14T01:05:23.497Z,20.94
2022-08-14T01:06:00.617Z,20.88
2022-08-14T01:06:34.289Z,20.88
2022-08-14T01:07:08.246Z,20.88
2022-08-14T01:07:53.915Z,20.81
2022-08-14T01:08:51.295Z,20.81
2022-08-14T01:09:22.897Z,20.81
2022-08-14T01:09:58.672Z,20.81
2022-08-14T01:10:50.089Z,20.81
2022-08-14T01:11:23.212Z,20.88
2022-08-14T01:12:03.404Z,20.88
2022-08-14T01:12:40.718Z,20.88
2022-08-14T01:13:17.186Z,20.88
2022-08-14T01:13:55.972Z,20.88
2022-08-14T01:14:34.058Z,20.88
2022-08-14T01:15:09.858Z,20.88
2022-08-14T01:15:58.406Z,20.81
2022-08-14T01:16:36.371Z,20.81
2022-08-14T01:17:09.980Z,20.75
2022-08-14T01:18:03.113Z,20.75
2022-08-14T01:19:01.241Z,20.69
2022-08-14T01:19:53.904Z,20.63
2022-08-14T01:20:44.882Z,20.63
2022-08-14T01:21:23.934Z,20.56
2022-08-14T01:21:57.528Z,20.56
2022-08-14T01:22:30.307Z,20.56
2022-08-14T01:23:05.492Z,20.56
2022-08-14T01:23:41.745Z,20.56
2022-08-14T01:24:30.482Z,20.50
2022-08-14T01:25:04.120Z,20.50
2022-08-14T01:25:38.212Z,20.50
2022-08-14T01:26:34.673Z,20.44
2022-08-14T01:27:13.905Z,20.44
2022-08-14T01:27:56.746Z,20.38
2022-08-14T01:28:47.332Z,20.38
2022-08-14T01:29:58.286Z,20.31
2022-08-14T01:30:26.451Z,20.31
2022-08-14T01:31:00.303Z,20.31
2022-08-14T01:31:37.348Z,20.25
2022-08-14T01:32:10.349Z,20.25
2022-08-14T01:32:44.381Z,20.25
2022-08-14T01:33:17.783Z,20.25
2022-08-14T01:35:16.390Z,20.25
2022-08-14T01:35:19.081Z,20.25
2022-08-14T01:36:03.545Z,20.25
2022-08-14T01:36:41.750Z,20.19
2022-08-14T01:37:16.520Z,20.19
2022-08-14T01:37:56.568Z,20.19
2022-08-14T01:38:31.621Z,20.19
2022-08-14T01:39:12.624Z,20.13
2022-08-14T01:39:46.031Z,20.13
2022-08-14T01:40:25.585Z,20.13
2022-08-14T01:41:12.046Z,20.13
2022-08-14T01:41:56.345Z,20.13
2022-08-14T01:42:36.165Z,20.06
2022-08-14T01:43:14.714Z,20.06
2022-08-14T01:43:56.045Z,20.06
2022-08-14T01:44:34.013Z,20.06
2022-08-14T01:45:12.694Z,20.06
2022-08-14T01:46:06.278Z,20.06
2022-08-14T01:46:42.310Z,20.06
2022-08-14T01:47:21.900Z,20.00
2022-08-14T01:48:03.532Z,20.00
2022-08-14T01:48:37.265Z,20.00
2022-08-14T01:49:13.173Z,20.00
2022-08-14T01:50:00.024Z,20.00
2022-08-14T01:50:34.471Z,20.00
2022-08-14T01:51:19.013Z,20.00
2022-08-14T01:51:56.825Z,20.00
2022-08-14T01:52:58.684Z,20.00
2022-08-14T01:53:32.763Z,20.00
2022-08-14T01:54:14.126Z,20.00
2022-08-14T01:54:47.004Z,20.00
2022-08-14T01:55:31.909Z,20.00
2022-08-14T01:56:12.189Z,19.94
2022-08-14T01:56:55.729Z,19.94
2022-08-14T01:57:49.516Z,19.94
2022-08-14T01:58:28.744Z,19.94
2022-08-14T01:59:04.208Z,19.94
2022-08-14T01:59:39.292Z,19.88
2022-08-14T02:00:19.155Z,19.88
2022-08-14T02:00:55.541Z,19.88
2022-08-14T02:01:29.529Z,19.88
2022-08-14T02:02:27.517Z,19.88
2022-08-14T02:03:00.280Z,19.88
2022-08-14T02:03:42.138Z,19.81
2022-08-14T02:04:55.223Z,19.81
2022-08-14T02:05:17.458Z,19.81
2022-08-14T02:05:51.077Z,19.81
2022-08-14T02:06:32.578Z,19.81
2022-08-14T02:07:34.115Z,19.81
2022-08-14T02:08:16.040Z,19.81
2022-08-14T02:08:55.887Z,19.81
2022-08-14T02:09:37.941Z,19.81
2022-08-14T02:10:15.571Z,19.81
2022-08-14T02:11:09.838Z,19.75
2022-08-14T02:11:42.493Z,19.75
2022-08-14T02:12:19.584Z,19.75
2022-08-14T02:12:59.450Z,19.75
2022-08-14T02:13:32.162Z,19.75
2022-08-14T02:14:14.182Z,19.75
2022-08-14T02:14:59.305Z,19.69
2022-08-14T02:15:34.110Z,19.69
2022-08-14T02:16:21.913Z,19.69
2022-08-14T02:16:57.305Z,19.69
2022-08-14T02:17:30.833Z,19.69
2022-08-14T02:18:04.405Z,19.69
2022-08-14T02:18:37.096Z,19.63
2022-08-14T02:19:13.441Z,19.69
2022-08-14T02:19:45.956Z,19.69
2022-08-14T02:20:23.453Z,19.69
2022-08-14T02:20:59.066Z,19.69
2022-08-14T02:21:39.484Z,19.69
2022-08-14T02:22:29.002Z,19.63
2022-08-14T02:23:05.612Z,19.63
2022-08-14T02:23:41.172Z,19.63
2022-08-14T02:24:39.553Z,19.63
2022-08-14T02:25:09.020Z,19.63
2022-08-14T02:25:44.208Z,19.63
2022-08-14T02:26:30.773Z,19.63
2022-08-14T02:28:21.921Z,19.63
2022-08-14T02:28:25.438Z,19.63
2022-08-14T02:28:57.355Z,19.56
2022-08-14T02:29:59.560Z,19.56
2022-08-14T02:30:27.057Z,19.56
2022-08-14T02:31:03.981Z,19.56
2022-08-14T02:31:44.431Z,19.56
2022-08-14T02:32:20.020Z,19.56
2022-08-14T02:33:05.654Z,19.56
2022-08-14T02:33:39.503Z,19.56
2022-08-14T02:34:21.935Z,19.56
2022-08-14T02:35:00.255Z,19.50
2022-08-14T02:35:33.296Z,19.50
2022-08-14T02:37:02.563Z,19.50
2022-08-14T02:37:10.930Z,19.50
2022-08-14T02:37:48.073Z,19.50
2022-08-14T02:38:30.584Z,19.50
2022-08-14T02:39:09.494Z,19.44
2022-08-14T02:39:44.518Z,19.44
2022-08-14T02:40:19.097Z,19.44
2022-08-14T02:40:52.699Z,19.44
2022-08-14T02:41:28.493Z,19.44
2022-08-14T02:42:04.520Z,19.44
2022-08-14T02:42:39.156Z,19.44
2022-08-14T02:43:13.803Z,19.44
2022-08-14T02:43:48.468Z,19.44
2022-08-14T02:44:29.524Z,19.38
2022-08-14T02:45:02.701Z,19.38
2022-08-14T02:45:38.681Z,19.38
2022-08-14T02:46:20.571Z,19.38
2022-08-14T02:47:03.134Z,19.38
2022-08-14T02:47:39.770Z,19.38
2022-08-14T02:49:01.615Z,19.31
2022-08-14T02:49:13.991Z,19.38
2022-08-14T02:49:54.941Z,19.31
2022-08-14T02:50:33.775Z,19.31
2022-08-14T02:51:09.139Z,19.31
2022-08-14T02:51:42.396Z,19.31
2022-08-14T02:52:26.929Z,19.31
2022-08-14T02:53:11.587Z,19.31
2022-08-14T02:53:48.505Z,19.31
2022-08-14T02:54:26.546Z,19.31
2022-08-14T02:54:59.634Z,19.31
2022-08-14T02:55:33.273Z,19.25
2022-08-14T02:56:30.867Z,19.25
2022-08-14T02:57:14.262Z,19.25
2022-08-14T02:58:03.131Z,19.25
2022-08-14T02:58:41.901Z,19.25
2022-08-14T02:59:18.099Z,19.19
2022-08-14T02:59:52.667Z,19.19
2022-08-14T03:00:25.482Z,19.19
2022-08-14T03:00:58.309Z,19.19
2022-08-14T03:01:43.374Z,19.19
2022-08-14T03:02:48.609Z,19.19
2022-08-14T03:03:10.198Z,19.19
2022-08-14T03:03:43.976Z,19.13
2022-08-14T03:04:17.599Z,19.13
2022-08-14T03:04:54.038Z,19.13
2022-08-14T03:05:35.998Z,19.13
2022-08-14T03:06:10.401Z,19.13
2022-08-14T03:06:57.357Z,19.13
2022-08-14T03:07:31.150Z,19.13
2022-08-14T03:08:07.908Z,19.13
2022-08-14T03:08:46.133Z,19.13
2022-08-14T03:09:18.935Z,19.06
2022-08-14T03:10:27.378Z,19.06
2022-08-14T03:10:49.265Z,19.06
2022-08-14T03:11:22.936Z,19.06
2022-08-14T03:11:55.783Z,19.06
2022-08-14T03:12:32.171Z,19.06
2022-08-14T03:13:19.192Z,19.06
2022-08-14T03:13:55.224Z,19.06
2022-08-14T03:14:27.826Z,19.06
2022-08-14T03:15:02.700Z,19.06
2022-08-14T03:15:38.693Z,19.06
2022-08-14T03:16:26.563Z,19.06
2022-08-14T03:16:59.500Z,19.06
2022-08-14T03:17:40.938Z,19.00
2022-08-14T03:18:31.938Z,19.00
2022-08-14T03:19:07.382Z,19.00
2022-08-14T03:19:39.950Z,19.00
2022-08-14T03:20:13.420Z,19.00
2022-08-14T03:20:46.449Z,19.00
2022-08-14T03:21:20.873Z,18.94
2022-08-14T03:21:55.274Z,18.94
2022-08-14T03:22:28.330Z,18.94
2022-08-14T03:23:03.137Z,18.94
2022-08-14T03:23:39.253Z,18.94
2022-08-14T03:24:16.351Z,18.94
2022-08-14T03:24:54.238Z,18.88
2022-08-14T03:25:31.401Z,18.94
2022-08-14T03:26:05.034Z,18.88
2022-08-14T03:26:39.632Z,18.88
2022-08-14T03:27:14.032Z,18.88
2022-08-14T03:27:48.368Z,18.88
2022-08-14T03:28:36.714Z,18.88
2022-08-14T03:29:14.989Z,18.88
2022-08-14T03:29:48.171Z,18.88
2022-08-14T03:30:23.219Z,18.88
2022-08-14T03:30:57.538Z,18.88
2022-08-14T03:31:33.030Z,18.88
2022-08-14T03:32:07.391Z,18.88
2022-08-14T03:32:41.043Z,18.88
2022-08-14T03:33:14.209Z,18.88
2022-08-14T03:33:51.815Z,18.88
2022-08-14T03:34:47.887Z,18.88
2022-08-14T03:35:21.223Z,18.88
2022-08-14T03:37:38.259Z,18.88
2022-08-14T03:37:39.003Z,18.88
2022-08-14T03:39:12.439Z,18.88
2022-08-14T03:39:15.295Z,18.88
2022-08-14T03:39:45.202Z,18.88
2022-08-14T03:40:18.503Z,18.81
2022-08-14T03:40:51.731Z,18.81
2022-08-14T03:41:33.278Z,18.81
2022-08-14T03:42:19.315Z,18.81
2022-08-14T03:42:53.296Z,18.81
2022-08-14T03:43:28.544Z,18.81
2022-08-14T03:45:25.143Z,18.81
2022-08-14T03:45:25.706Z,18.81
2022-08-14T03:45:53.902Z,18.81
2022-08-14T03:46:51.951Z,18.81
2022-08-14T03:47:20.739Z,18.81
2022-08-14T03:47:58.479Z,18.75
2022-08-14T03:48:40.461Z,18.75
2022-08-14T03:49:14.076Z,18.75
2022-08-14T03:49:58.330Z,18.75
2022-08-14T03:50:32.484Z,18.75
2022-08-14T03:51:06.343Z,18.75
2022-08-14T03:51:42.272Z,18.75
2022-08-14T03:52:37.726Z,18.75
2022-08-14T03:53:08.661Z,18.69
2022-08-14T03:53:47.495Z,18.69
2022-08-14T03:54:22.305Z,18.69
2022-08-14T03:54:56.177Z,18.69
2022-08-14T03:55:30.386Z,18.69
2022-08-14T03:56:03.836Z,18.69
2022-08-14T03:56:37.440Z,18.69
2022-08-14T03:57:11.070Z,18.69
2022-08-14T03:57:44.042Z,18.69
2022-08-14T03:58:23.489Z,18.69
2022-08-14T03:59:03.084Z,18.69
2022-08-14T03:59:36.969Z,18.69
2022-08-14T04:00:40.392Z,18.69
2022-08-14T04:01:07.026Z,18.69
2022-08-14T04:01:41.602Z,18.69
2022-08-14T04:02:33.408Z,18.69
2022-08-14T04:03:15.404Z,18.69
2022-08-14T04:03:54.902Z,18.69
2022-08-14T04:04:27.818Z,18.69
2022-08-14T04:05:08.201Z,18.69
2022-08-14T04:05:48.495Z,18.69
2022-08-14T04:06:28.270Z,18.63
2022-08-14T04:07:04.469Z,18.63
2022-08-14T04:07:50.012Z,18.63
2022-08-14T04:08:36.117Z,18.63
2022-08-14T04:09:09.835Z,18.63
2022-08-14T04:09:42.386Z,18.63
2022-08-14T04:10:17.524Z,18.63
2022-08-14T04:11:01.623Z,18.63
2022-08-14T04:11:35.966Z,18.63
2022-08-14T04:12:13.346Z,18.63
2022-08-14T04:12:51.633Z,18.63
2022-08-14T04:13:24.506Z,18.63
2022-08-14T04:14:01.279Z,18.63
2022-08-14T04:14:37.171Z,18.56
2022-08-14T04:15:11.028Z,18.56
2022-08-14T04:15:56.208Z,18.56
2022-08-14T04:16:35.613Z,18.56
2022-08-14T04:17:10.154Z,18.56
2022-08-14T04:17:43.791Z,18.56
2022-08-14T04:18:20.355Z,18.56
2022-08-14T04:18:55.528Z,18.56
2022-08-14T04:19:32.822Z,18.56
2022-08-14T04:20:09.914Z,18.56
2022-08-14T04:20:54.860Z,18.56
2022-08-14T04:21:30.866Z,18.56
2022-08-14T04:22:13.339Z,18.56
2022-08-14T04:22:50.443Z,18.63
2022-08-14T04:23:29.899Z,18.63
2022-08-14T04:24:06.915Z,18.63
2022-08-14T04:24:39.972Z,18.63
2022-08-14T04:25:14.788Z,18.63
2022-08-14T04:25:48.669Z,18.63
2022-08-14T04:26:27.430Z,18.63
2022-08-14T04:27:15.780Z,18.63
2022-08-14T04:28:02.291Z,18.56
2022-08-14T04:29:07.860Z,18.63
2022-08-14T04:29:30.499Z,18.56
2022-08-14T04:30:07.124Z,18.56
2022-08-14T04:30:42.249Z,18.56
2022-08-14T04:31:16.368Z,18.56
2022-08-14T04:33:00.980Z,18.63
2022-08-14T04:33:01.460Z,18.63
2022-08-14T04:33:36.513Z,18.63
2022-08-14T04:34:20.794Z,18.63
2022-08-14T04:34:57.859Z,18.63
2022-08-14T04:35:55.265Z,18.63
2022-08-14T04:36:23.979Z,18.63
2022-08-14T04:37:21.875Z,18.63
2022-08-14T04:38:36.626Z,18.63
2022-08-14T04:39:24.575Z,18.63
2022-08-14T04:40:15.880Z,18.63
2022-08-14T04:41:08.070Z,18.63
2022-08-14T04:42:00.797Z,18.69
2022-08-14T04:42:51.978Z,18.69
2022-08-14T04:43:39.995Z,18.75
2022-08-14T04:44:26.371Z,18.81
2022-08-14T04:45:01.059Z,18.81
2022-08-14T04:45:40.611Z,18.88
2022-08-14T04:46:56.987Z,18.88
2022-08-14T04:47:26.480Z,18.94
2022-08-14T04:48:13.581Z,18.94
2022-08-14T04:49:07.810Z,18.94
2022-08-14T04:49:57.091Z,19.00
2022-08-14T04:50:43.690Z,19.06
2022-08-14T04:51:21.625Z,19.06
2022-08-14T04:51:56.439Z,19.13
2022-08-14T04:52:29.156Z,19.13
2022-08-14T04:53:03.818Z,19.13
2022-08-14T04:53:43.732Z,19.13
2022-08-14T04:54:17.214Z,19.13
2022-08-14T04:54:49.859Z,19.13
2022-08-14T04:55:23.483Z,19.13
2022-08-14T04:56:03.036Z,19.13
2022-08-14T04:56:38.211Z,19.13
2022-08-14T04:57:15.280Z,19.13
2022-08-14T04:57:50.630Z,19.13
2022-08-14T04:58:32.226Z,19.19
2022-08-14T04:59:09.498Z,19.19
2022-08-14T04:59:43.281Z,19.19
2022-08-14T05:00:18.272Z,19.19
2022-08-14T05:00:52.393Z,19.19
2022-08-14T05:01:25.778Z,19.19
2022-08-14T05:01:59.467Z,19.25
2022-08-14T05:02:34.693Z,19.25
2022-08-14T05:03:09.444Z,19.25
2022-08-14T05:03:45.706Z,19.25
2022-08-14T05:04:19.991Z,19.25
2022-08-14T05:04:57.427Z,19.25
2022-08-14T05:05:34.141Z,19.25
2022-08-14T05:06:37.082Z,19.25
2022-08-14T05:07:02.809Z,19.25
2022-08-14T05:07:54.241Z,19.19
2022-08-14T05:08:31.790Z,19.25
2022-08-14T05:09:23.028Z,19.25
2022-08-14T05:09:55.541Z,19.25
2022-08-14T05:10:32.292Z,19.25
2022-08-14T05:11:12.031Z,19.25
2022-08-14T05:11:47.426Z,19.25
2022-08-14T05:13:14.009Z,19.25
2022-08-14T05:13:15.691Z,19.31
2022-08-14T05:14:46.595Z,19.31
2022-08-14T05:15:29.498Z,19.38
2022-08-14T05:16:06.811Z,19.38
2022-08-14T05:16:41.733Z,19.38
2022-08-14T05:17:23.197Z,19.38
2022-08-14T05:18:16.875Z,19.44
2022-08-14T05:19:17.849Z,19.44
2022-08-14T05:21:55.988Z,19.50
2022-08-14T05:21:56.098Z,19.50
2022-08-14T05:21:57.031Z,19.50
2022-08-14T05:22:32.823Z,19.56
2022-08-14T05:23:07.890Z,19.56
2022-08-14T05:23:48.935Z,19.63
2022-08-14T05:24:25.411Z,19.63
2022-08-14T05:25:06.211Z,19.69
2022-08-14T05:25:40.047Z,19.69
2022-08-14T05:26:15.878Z,19.69
2022-08-14T05:26:53.360Z,19.75
2022-08-14T05:27:25.831Z,19.75
2022-08-14T05:28:16.230Z,19.75
2022-08-14T05:28:49.380Z,19.75
2022-08-14T05:29:22.046Z,19.75
2022-08-14T05:29:57.428Z,19.81
2022-08-14T05:30:55.677Z,19.81
2022-08-14T05:31:40.339Z,19.88
2022-08-14T05:32:19.202Z,19.88
2022-08-14T05:33:02.638Z,19.94
2022-08-14T05:33:44.370Z,19.94
2022-08-14T05:34:32.237Z,19.94
2022-08-14T05:35:07.815Z,20.00
2022-08-14T05:35:42.598Z,20.00
2022-08-14T05:36:17.133Z,20.06
2022-08-14T05:36:50.531Z,20.06
2022-08-14T05:37:34.934Z,20.06
2022-08-14T05:38:11.014Z,20.13
2022-08-14T05:39:03.370Z,20.13
2022-08-14T05:39:36.286Z,20.19
2022-08-14T05:40:11.113Z,20.19
2022-08-14T05:40:46.905Z,20.19
2022-08-14T05:41:22.029Z,20.25
2022-08-14T05:41:54.954Z,20.25
2022-08-14T05:42:31.803Z,20.25
2022-08-14T05:43:06.925Z,20.25
2022-08-14T05:43:41.891Z,20.31
2022-08-14T05:44:16.657Z,20.31
2022-08-14T05:44:50.259Z,20.31
2022-08-14T05:45:27.753Z,20.38
2022-08-14T05:46:06.608Z,20.38
2022-08-14T05:46:40.499Z,20.44
2022-08-14T05:47:15.398Z,20.44
2022-08-14T05:47:50.684Z,20.50
2022-08-14T05:49:15.973Z,20.56
2022-08-14T05:49:49.399Z,20.56
2022-08-14T05:50:22.974Z,20.56
2022-08-14T05:50:55.821Z,20.63
2022-08-14T05:51:46.728Z,20.63
2022-08-14T05:52:38.635Z,20.69
2022-08-14T05:53:24.153Z,20.69
2022-08-14T05:54:01.584Z,20.75
2022-08-14T05:54:42.928Z,20.75
2022-08-14T05:55:23.280Z,20.75
2022-08-14T05:55:57.286Z,20.75
2022-08-14T05:56:31.162Z,20.75
2022-08-14T05:57:05.347Z,20.75
2022-08-14T05:58:01.885Z,20.81
2022-08-14T05:58:41.334Z,20.81
2022-08-14T05:59:14.235Z,20.81
2022-08-14T05:59:52.909Z,20.81
2022-08-14T06:00:36.947Z,20.81
2022-08-14T06:01:12.812Z,20.81
2022-08-14T06:01:47.215Z,20.81
2022-08-14T06:02:33.062Z,20.88
2022-08-14T06:03:08.827Z,20.88
2022-08-14T06:03:43.817Z,20.88
2022-08-14T06:04:16.612Z,20.88
2022-08-14T06:04:53.441Z,20.94
2022-08-14T06:05:34.114Z,20.94
2022-08-14T06:06:11.873Z,20.94
2022-08-14T06:06:44.412Z,20.94
2022-08-14T06:07:17.195Z,20.94
2022-08-14T06:07:58.083Z,20.94
2022-08-14T06:08:53.078Z,21.00
2022-08-14T06:10:03.785Z,21.00
2022-08-14T06:10:36.945Z,21.06
2022-08-14T06:11:20.419Z,21.06
2022-08-14T06:12:03.959Z,21.06
2022-08-14T06:12:56.787Z,21.06
2022-08-14T06:13:31.870Z,21.13
2022-08-14T06:14:24.120Z,21.13
2022-08-14T06:14:56.816Z,21.13
2022-08-14T06:15:30.990Z,21.13
2022-08-14T06:16:05.071Z,21.13
2022-08-14T06:16:38.406Z,21.13
2022-08-14T06:17:25.828Z,21.13
2022-08-14T06:18:22.825Z,21.13
2022-08-14T06:19:11.247Z,21.13
2022-08-14T06:19:49.089Z,21.13
2022-08-14T06:20:24.657Z,21.13
2022-08-14T06:20:57.396Z,21.19
2022-08-14T06:21:30.893Z,21.19
2022-08-14T06:22:16.650Z,21.19
2022-08-14T06:22:50.143Z,21.19
2022-08-14T06:23:25.037Z,21.19
2022-08-14T06:23:59.934Z,21.19
2022-08-14T06:24:38.079Z,21.19
2022-08-14T06:25:18.304Z,21.25
2022-08-14T06:26:10.175Z,21.25
2022-08-14T06:26:42.773Z,21.25
2022-08-14T06:27:36.824Z,21.31
2022-08-14T06:28:26.844Z,21.31
2022-08-14T06:29:03.351Z,21.31
2022-08-14T06:29:53.693Z,21.38
2022-08-14T06:30:46.248Z,21.38
2022-08-14T06:31:21.452Z,21.44
2022-08-14T06:32:00.650Z,21.44
2022-08-14T06:32:53.752Z,21.50
2022-08-14T06:35:02.225Z,21.56
2022-08-14T06:35:02.592Z,21.50
2022-08-14T06:35:20.437Z,21.56
2022-08-14T06:35:53.891Z,21.56
2022-08-14T06:36:26.955Z,21.63
2022-08-14T06:37:10.653Z,21.63
2022-08-14T06:37:54.418Z,21.69
2022-08-14T06:38:27.093Z,21.69
2022-08-14T06:38:59.696Z,21.69
2022-08-14T06:39:44.197Z,21.69
2022-08-14T06:40:26.695Z,21.75
2022-08-14T06:41:10.927Z,21.75
2022-08-14T06:41:57.953Z,21.81
2022-08-14T06:42:47.276Z,21.81
2022-08-14T06:43:27.089Z,21.81
2022-08-14T06:44:02.573Z,21.88
2022-08-14T06:44:41.105Z,21.88
2022-08-14T06:45:13.959Z,21.94
2022-08-14T06:45:53.996Z,21.94
2022-08-14T06:46:37.219Z,21.94
2022-08-14T06:47:10.693Z,22.00
2022-08-14T06:47:49.305Z,22.00
2022-08-14T06:48:25.864Z,22.06
2022-08-14T06:48:58.390Z,22.06
2022-08-14T06:49:42.829Z,22.13
2022-08-14T06:50:28.213Z,22.13
2022-08-14T06:51:03.823Z,22.19
2022-08-14T06:51:46.825Z,22.19
2022-08-14T06:52:22.981Z,22.25
2022-08-14T06:53:07.254Z,22.31
2022-08-14T06:53:39.973Z,22.31
2022-08-14T06:54:12.717Z,22.38
2022-08-14T06:54:47.922Z,22.38
2022-08-14T06:55:25.402Z,22.44
2022-08-14T06:56:02.381Z,22.44
2022-08-14T06:56:35.129Z,22.50
2022-08-14T06:57:07.652Z,22.50
2022-08-14T06:57:53.239Z,22.56
2022-08-14T06:58:29.144Z,22.63
2022-08-14T06:59:05.261Z,22.63
2022-08-14T06:59:37.975Z,22.69
2022-08-14T07:00:22.442Z,22.69
2022-08-14T07:01:24.866Z,22.75
2022-08-14T07:02:19.185Z,22.81
2022-08-14T07:03:21.664Z,22.88
2022-08-14T07:04:24.165Z,22.94
2022-08-14T07:05:23.361Z,23.06
2022-08-14T07:05:58.481Z,23.19
2022-08-14T07:06:46.473Z,23.25
2022-08-14T07:07:20.603Z,23.31
2022-08-14T07:07:57.775Z,23.38
2022-08-14T07:08:32.873Z,23.44
2022-08-14T07:09:05.519Z,23.44
2022-08-14T07:09:43.773Z,23.50
2022-08-14T07:10:25.036Z,23.56
2022-08-14T07:11:00.165Z,23.63
2022-08-14T07:11:34.409Z,23.63
2022-08-14T07:12:54.127Z,23.69
2022-08-14T07:13:24.411Z,23.75
2022-08-14T07:13:58.676Z,23.88
2022-08-14T07:14:32.201Z,23.94
2022-08-14T07:15:05.880Z,24.00
2022-08-14T07:15:40.001Z,24.13
2022-08-14T07:16:19.163Z,24.19
2022-08-14T07:16:51.610Z,24.25
2022-08-14T07:17:24.360Z,24.25
2022-08-14T07:18:01.748Z,24.31
2022-08-14T07:18:37.059Z,24.38
2022-08-14T07:19:13.275Z,24.38
2022-08-14T07:19:46.727Z,24.31
2022-08-14T07:20:31.308Z,24.31
2022-08-14T07:21:07.489Z,24.31
2022-08-14T07:21:39.991Z,24.25
2022-08-14T07:22:17.584Z,24.19
2022-08-14T07:23:00.504Z,24.19
2022-08-14T07:23:40.106Z,24.25
2022-08-14T07:24:21.736Z,24.31
2022-08-14T07:24:59.025Z,24.38
2022-08-14T07:25:33.128Z,24.44
2022-08-14T07:26:07.609Z,24.50
2022-08-14T07:26:42.966Z,24.50
2022-08-14T07:27:17.256Z,24.56
2022-08-14T07:27:50.668Z,24.56
2022-08-14T07:28:27.203Z,24.63
2022-08-14T07:29:00.685Z,24.69
2022-08-14T07:29:34.095Z,24.69
2022-08-14T07:30:09.110Z,24.81
2022-08-14T07:31:04.590Z,24.88
2022-08-14T07:31:37.814Z,24.94
2022-08-14T07:32:11.338Z,25.00
2022-08-14T07:32:53.545Z,25.13
2022-08-14T07:33:30.153Z,25.19
2022-08-14T07:34:04.261Z,25.25
2022-08-14T07:34:41.236Z,25.31
2022-08-14T07:35:13.962Z,25.38
2022-08-14T07:35:58.642Z,25.44
2022-08-14T07:36:31.693Z,25.44
2022-08-14T07:37:04.518Z,25.50
2022-08-14T07:37:38.037Z,25.50
2022-08-14T07:38:18.586Z,25.56
2022-08-14T07:38:53.494Z,25.63
2022-08-14T07:39:27.552Z,25.69
2022-08-14T07:40:01.286Z,25.69
2022-08-14T07:40:34.485Z,25.75
2022-08-14T07:41:14.623Z,25.75
2022-08-14T07:41:49.594Z,25.81
2022-08-14T07:42:22.787Z,25.81
2022-08-14T07:42:56.356Z,25.88
2022-08-14T07:43:30.209Z,25.88
2022-08-14T07:44:32.625Z,25.88
2022-08-14T07:44:57.121Z,25.94
2022-08-14T07:45:32.039Z,26.00
2022-08-14T07:46:05.474Z,26.06
2022-08-14T07:46:39.303Z,26.06
2022-08-14T07:47:16.796Z,26.06
2022-08-14T07:47:49.486Z,26.13
2022-08-14T07:48:25.229Z,26.13
2022-08-14T07:48:59.240Z,26.19
2022-08-14T07:49:32.555Z,26.19
2022-08-14T07:50:12.109Z,26.19
2022-08-14T07:50:50.746Z,26.25
2022-08-14T07:51:24.053Z,26.31
2022-08-14T07:51:59.960Z,26.38
2022-08-14T07:52:32.728Z,26.44
2022-08-14T07:53:06.624Z,26.50
2022-08-14T07:53:41.163Z,26.56
2022-08-14T07:54:16.445Z,26.63
2022-08-14T07:54:55.738Z,26.69
2022-08-14T07:55:30.219Z,26.75
2022-08-14T07:56:22.018Z,26.81
2022-08-14T07:56:56.877Z,27.00
2022-08-14T07:57:29.488Z,27.06
2022-08-14T07:58:05.924Z,27.06
2022-08-14T07:58:58.517Z,27.13
2022-08-14T07:59:40.919Z,27.13
2022-08-14T08:00:31.208Z,27.19
2022-08-14T08:01:06.810Z,27.19
2022-08-14T08:01:48.291Z,27.13
2022-08-14T08:02:28.963Z,27.19
2022-08-14T08:03:10.155Z,27.25
2022-08-14T08:03:49.497Z,27.31
2022-08-14T08:04:26.901Z,27.38
2022-08-14T08:05:04.252Z,27.44
2022-08-14T08:05:38.551Z,27.38
2022-08-14T08:06:17.572Z,27.38
2022-08-14T08:06:52.396Z,27.38
2022-08-14T08:07:29.677Z,27.44
2022-08-14T08:08:27.048Z,27.50
2022-08-14T08:09:03.315Z,27.56
2022-08-14T08:09:39.479Z,27.56
2022-08-14T08:11:01.647Z,27.56
2022-08-14T08:11:28.123Z,27.63
2022-08-14T08:12:09.451Z,27.56
2022-08-14T08:12:47.082Z,27.56
2022-08-14T08:13:24.126Z,27.50
2022-08-14T08:14:00.350Z,27.50
2022-08-14T08:14:55.357Z,27.50
2022-08-14T08:15:29.982Z,27.56
2022-08-14T08:16:06.613Z,27.63
2022-08-14T08:16:40.087Z,27.69
2022-08-14T08:17:12.882Z,27.69
2022-08-14T08:17:53.925Z,27.75
2022-08-14T08:18:37.463Z,27.81
2022-08-14T08:19:14.211Z,27.81
2022-08-14T08:19:48.222Z,27.81
2022-08-14T08:20:29.343Z,27.81
2022-08-14T08:21:02.356Z,27.88
2022-08-14T08:21:38.398Z,27.88
2022-08-14T08:22:17.310Z,27.88
2022-08-14T08:22:55.832Z,27.94
2022-08-14T08:23:39.996Z,28.00
2022-08-14T08:24:18.305Z,28.06
2022-08-14T08:24:52.140Z,28.13
2022-08-14T08:25:28.615Z,28.13
2022-08-14T08:26:01.220Z,28.19
2022-08-14T08:26:35.250Z,28.25
2022-08-14T08:27:17.498Z,28.25
2022-08-14T08:28:03.509Z,28.25
2022-08-14T08:28:43.732Z,28.25
2022-08-14T08:29:25.121Z,28.31
2022-08-14T08:30:10.329Z,28.25
2022-08-14T08:30:49.450Z,28.31
2022-08-14T08:31:24.148Z,28.25
2022-08-14T08:32:06.246Z,28.25
2022-08-14T08:32:40.460Z,28.19
2022-08-14T08:33:15.851Z,28.19
2022-08-14T08:33:52.694Z,28.19
2022-08-14T08:34:27.772Z,28.25
2022-08-14T08:35:02.972Z,28.25
2022-08-14T08:35:46.823Z,28.25
2022-08-14T08:36:22.863Z,28.25
2022-08-14T08:37:05.197Z,28.25
2022-08-14T08:37:39.973Z,28.31
2022-08-14T08:39:14.680Z,28.31
2022-08-14T08:39:16.485Z,28.31
2022-08-14T08:40:02.512Z,28.31
2022-08-14T08:40:42.205Z,28.19
2022-08-14T08:41:16.203Z,28.13
2022-08-14T08:41:53.609Z,28.06